Time;durP1;ratioP1;P1;durP2;ratioP2;P2;SDS_P1;SDS_P2;PMS_P1;PMS_P2;Temp;Humidity;BMP_temperature;BMP_pressure;BME280_temperature;BME280_humidity;BME280_pressure;Samples;Min_cycle;Max_cycle;Signal;HPM_P1;HPM_P2
2022/08/13 00:01:05;;;;;;;27.95;8.83;;;;;;;22.38;70.11;99855.68;1685196;85;21174;-79
2022/08/13 00:04:15;;;;;;;16.95;7.90;;;;;;;22.43;69.82;99845.97;1730842;83;21171;-80
2022/08/13 00:07:21;;;;;;;17.95;7.40;;;;;;;22.36;70.05;99856.52;1730282;83;21192;-80
2022/08/13 00:10:28;;;;;;;19.27;8.53;;;;;;;22.37;69.90;99856.80;1730631;83;21152;-80
2022/08/13 00:13:34;;;;;;;15.93;7.62;;;;;;;22.35;69.77;99849.27;1729800;83;21227;-81
2022/08/13 00:16:41;;;;;;;24.80;7.95;;;;;;;22.36;69.67;99852.34;1730395;83;21254;-80
2022/08/13 00:19:53;;;;;;;18.50;8.20;;;;;;;22.29;69.95;99853.93;1730903;83;21160;-80
2022/08/13 00:22:58;;;;;;;23.30;8.10;;;;;;;22.29;69.97;99843.34;1730300;83;21264;-80
2022/08/13 00:26:06;;;;;;;15.45;8.18;;;;;;;22.27;70.01;99845.01;1730304;83;21165;-80
2022/08/13 00:29:13;;;;;;;18.85;7.40;;;;;;;22.26;70.07;99842.50;1730217;83;21192;-79
2022/08/13 00:32:21;;;;;;;25.37;7.72;;;;;;;22.31;69.72;99835.58;1730471;83;21208;-79
2022/08/13 00:35:27;;;;;;;19.57;8.38;;;;;;;22.34;69.44;99834.47;1730797;83;21171;-79
2022/08/13 00:38:35;;;;;;;18.32;7.33;;;;;;;22.33;69.22;99834.19;1729794;83;21216;-79
2022/08/13 00:41:39;;;;;;;15.35;7.12;;;;;;;22.29;69.00;99834.42;1730790;83;21180;-79
2022/08/13 00:44:47;;;;;;;19.05;7.67;;;;;;;22.35;68.41;99836.73;1730220;83;21764;-79
2022/08/13 00:51:19;;;;;;;21.10;7.20;;;;;;;22.28;68.06;99826.34;1730709;83;21832;-80
2022/08/13 00:54:27;;;;;;;27.93;7.78;;;;;;;22.26;67.89;99817.42;1730365;83;21132;-80
2022/08/13 00:57:34;;;;;;;21.52;7.83;;;;;;;22.28;67.72;99819.38;1730941;82;21160;-79
2022/08/13 01:00:39;;;;;;;15.90;8.03;;;;;;;22.26;67.69;99825.78;1730865;83;21148;-80
2022/08/13 01:03:45;;;;;;;18.77;8.00;;;;;;;22.28;67.48;99823.56;1729700;83;21207;-80
2022/08/13 01:06:53;;;;;;;18.50;7.10;;;;;;;22.25;67.43;99822.69;1729915;83;22126;-79
2022/08/13 01:10:01;;;;;;;21.73;8.13;;;;;;;22.24;67.30;99814.88;1730709;83;21137;-80
2022/08/13 01:13:11;;;;;;;18.32;7.20;;;;;;;22.15;67.29;99810.90;1730065;83;21199;-80
2022/08/13 01:16:20;;;;;;;17.32;8.10;;;;;;;22.12;67.32;99812.84;1766048;81;21185;-80
2022/08/13 01:19:25;;;;;;;14.40;6.83;;;;;;;22.14;67.07;99823.16;1703493;84;21888;-80
2022/08/13 01:22:33;;;;;;;21.05;7.92;;;;;;;22.12;67.00;99817.86;1768517;81;21582;-80
2022/08/13 01:25:40;;;;;;;22.22;7.20;;;;;;;22.19;66.89;99814.28;1702906;84;21804;-80
2022/08/13 01:28:48;;;;;;;14.95;6.72;;;;;;;22.10;66.88;99814.45;1767937;81;21236;-80
2022/08/13 01:31:55;;;;;;;18.05;7.65;;;;;;;22.08;66.89;99813.88;1671194;86;21213;-80
2022/08/13 01:35:00;;;;;;;22.82;7.80;;;;;;;22.10;66.73;99810.83;1734326;82;21213;-80
2022/08/13 01:38:06;;;;;;;21.00;7.95;;;;;;;22.11;66.61;99815.28;1733479;82;21821;-80
2022/08/13 01:41:14;;;;;;;17.92;7.90;;;;;;;22.10;66.36;99813.61;1734092;82;21169;-80
2022/08/13 01:44:20;;;;;;;21.73;7.70;;;;;;;22.06;66.32;99818.86;1735417;81;21226;-80
2022/08/13 01:50:47;;;;;;;16.62;7.62;;;;;;;22.13;65.86;99817.30;1740398;82;21155;-80
2022/08/13 01:53:40;;;;;;;17.80;8.93;;;;;;;22.09;65.77;99822.52;1740328;81;21191;-78
2022/08/13 01:56:47;;;;;;;17.35;7.87;;;;;;;22.11;65.68;99822.24;1738894;82;21159;-78
2022/08/13 01:59:53;;;;;;;17.67;7.62;;;;;;;22.05;65.72;99814.40;1740319;81;21238;-80
2022/08/13 02:03:04;;;;;;;14.30;6.67;;;;;;;21.97;65.77;99812.09;1739652;82;21198;-80
2022/08/13 02:06:11;;;;;;;22.10;8.38;;;;;;;22.01;65.62;99811.02;1740473;82;21171;-80
2022/08/13 02:09:19;;;;;;;19.87;7.50;;;;;;;21.98;65.56;99811.56;1739087;81;21179;-80
2022/08/13 02:12:27;;;;;;;16.07;7.92;;;;;;;21.99;65.42;99811.84;1739593;82;21234;-80
2022/08/13 02:15:33;;;;;;;19.65;7.67;;;;;;;22.04;65.19;99809.94;1733343;81;21160;-80
2022/08/13 02:18:34;;;;;;;19.15;8.60;;;;;;;22.06;65.10;99804.94;1728535;83;21200;-79
2022/08/13 02:21:45;;;;;;;18.27;7.60;;;;;;;22.03;65.11;99799.91;1729965;83;21211;-79
2022/08/13 02:25:04;;;;;;;22.67;8.18;;;;;;;22.00;65.04;99798.20;1729863;83;21172;-80
2022/08/13 02:28:11;;;;;;;15.00;7.58;;;;;;;21.96;65.17;99797.88;1729616;83;21275;-79
2022/08/13 02:31:18;;;;;;;24.60;8.53;;;;;;;21.95;65.08;99796.20;1769111;81;21142;-80
2022/08/13 02:34:24;;;;;;;19.17;8.23;;;;;;;22.20;64.00;99800.64;1770684;81;21139;-80
2022/08/13 02:37:25;;;;;;;15.45;7.58;;;;;;;21.65;65.85;99792.56;1770693;81;21563;-80
2022/08/13 02:43:57;;;;;;;23.73;8.60;;;;;;;21.75;65.87;99784.88;1769676;81;21643;-80
2022/08/13 02:47:06;;;;;;;18.80;7.75;;;;;;;21.76;66.13;99787.94;1769810;81;21225;-79
2022/08/13 02:50:13;;;;;;;22.58;8.60;;;;;;;21.74;66.23;99788.73;1769989;81;21757;-81
2022/08/13 02:53:19;;;;;;;16.20;8.08;;;;;;;21.69;66.18;99800.13;1770105;81;21166;-81
2022/08/13 02:56:26;;;;;;;14.53;7.65;;;;;;;21.69;66.11;99795.13;1770823;81;21185;-80
2022/08/13 02:59:31;;;;;;;18.85;7.78;;;;;;;21.65;66.25;99793.41;1763635;81;21767;-80
2022/08/13 03:02:38;;;;;;;11.50;7.42;;;;;;;21.72;66.17;99789.56;1744182;82;21195;-80
2022/08/13 03:05:44;;;;;;;14.90;6.92;;;;;;;21.76;66.11;99802.70;1745609;82;21164;-79
2022/08/13 03:08:55;;;;;;;16.52;7.25;;;;;;;21.76;66.34;99793.52;1744234;82;21180;-80
2022/08/13 03:11:55;;;;;;;18.67;8.08;;;;;;;21.69;66.14;99794.56;1745276;82;21188;-80
2022/08/13 03:14:49;;;;;;;13.95;6.60;;;;;;;21.86;66.07;99793.61;1726017;82;21187;-79
2022/08/13 03:17:55;;;;;;;19.27;7.28;;;;;;;21.78;66.13;99790.73;1694499;84;21744;-80
2022/08/13 03:21:01;;;;;;;15.03;7.92;;;;;;;21.86;65.79;99803.35;1695074;84;21190;-80
2022/08/13 03:24:09;;;;;;;18.52;8.48;;;;;;;21.83;65.93;99801.95;1694760;84;21250;-80
2022/08/13 03:27:16;;;;;;;14.10;8.00;;;;;;;21.82;66.07;99803.59;1695041;84;21798;-80
2022/08/13 03:30:27;;;;;;;23.07;7.50;;;;;;;21.94;65.89;99801.49;1694283;84;21190;-79
2022/08/13 03:33:32;;;;;;;15.60;7.50;;;;;;;21.97;65.86;99803.73;1694198;84;21246;-80
2022/08/13 03:36:40;;;;;;;18.98;7.83;;;;;;;22.15;65.58;99800.59;1694676;84;21218;-80
2022/08/13 03:39:47;;;;;;;15.85;7.53;;;;;;;22.30;65.37;99804.62;1695284;84;21748;-80
2022/08/13 03:42:48;;;;;;;22.05;7.47;;;;;;;22.45;65.09;99797.80;1694734;84;21608;-80
2022/08/13 03:45:44;;;;;;;25.88;7.85;;;;;;;22.64;64.86;99794.03;1694063;84;21163;-80
2022/08/13 03:48:30;;;;;;;13.60;8.25;;;;;;;22.83;64.62;99792.48;1694517;84;21233;-79
2022/08/13 03:51:39;;;;;;;14.58;7.60;;;;;;;22.95;64.36;99790.34;1695731;84;21724;-79
2022/08/13 03:54:47;;;;;;;23.60;8.20;;;;;;;23.05;63.72;99791.50;1695296;84;21238;-80
2022/08/13 03:57:55;;;;;;;22.35;7.08;;;;;;;23.20;63.42;99793.00;1695008;84;21238;-79
2022/08/13 04:01:04;;;;;;;22.77;7.87;;;;;;;23.38;62.88;99791.12;1704954;82;21171;-79
2022/08/13 04:04:10;;;;;;;14.35;6.62;;;;;;;23.47;62.09;99785.27;1754701;82;21214;-80
2022/08/13 04:07:19;;;;;;;18.90;7.60;;;;;;;23.61;61.62;99786.15;1754439;82;21222;-80
2022/08/13 04:10:27;;;;;;;15.83;8.13;;;;;;;23.75;60.85;99783.70;1753155;82;21250;-80
2022/08/13 04:13:36;;;;;;;15.25;7.50;;;;;;;23.85;60.02;99792.10;1753753;82;21476;-80
2022/08/13 04:16:37;;;;;;;14.28;7.25;;;;;;;23.89;59.01;99791.27;1754136;82;21156;-80
2022/08/13 04:19:47;;;;;;;14.43;7.35;;;;;;;24.04;58.62;99801.63;1754687;82;21211;-79
2022/08/13 04:22:46;;;;;;;12.37;6.55;;;;;;;24.14;58.32;99796.07;1754261;82;21211;-80
2022/08/13 04:25:52;;;;;;;13.25;7.42;;;;;;;24.26;57.65;99797.73;1754113;82;21242;-79
2022/08/13 04:29:00;;;;;;;16.07;7.37;;;;;;;24.32;56.44;99789.63;1753480;82;21226;-79
2022/08/13 04:32:06;;;;;;;10.63;6.20;;;;;;;24.45;56.07;99784.91;1754740;82;21207;-79
2022/08/13 04:35:15;;;;;;;16.93;7.20;;;;;;;24.64;55.88;99786.56;1754042;82;21767;-79
2022/08/13 04:38:22;;;;;;;18.27;7.75;;;;;;;24.78;54.81;99785.42;1753016;82;21771;-79
2022/08/13 04:41:28;;;;;;;16.85;8.00;;;;;;;24.89;54.42;99778.14;1753598;82;21225;-79
2022/08/13 04:44:36;;;;;;;12.53;7.35;;;;;;;25.02;53.91;99773.89;1754808;82;21721;-79
2022/08/13 04:47:43;;;;;;;21.23;7.67;;;;;;;25.13;52.98;99769.98;1754370;82;21203;-80
2022/08/13 04:50:52;;;;;;;16.90;7.97;;;;;;;25.26;52.87;99771.31;1754320;82;21167;-80
2022/08/13 04:53:58;;;;;;;17.70;7.80;;;;;;;25.35;52.91;99774.35;1753319;82;21841;-80
2022/08/13 04:57:04;;;;;;;15.05;8.40;;;;;;;25.51;52.32;99777.38;1754362;82;21151;-80
2022/08/13 05:00:09;;;;;;;13.98;7.90;;;;;;;25.61;51.45;99773.67;1754579;82;21191;-80
2022/08/13 05:03:22;;;;;;;11.53;7.05;;;;;;;25.73;50.88;99771.34;1739026;82;21216;-80
2022/08/13 05:06:29;;;;;;;20.25;8.38;;;;;;;25.74;51.23;99767.44;1730403;83;21144;-79
2022/08/13 05:09:34;;;;;;;16.67;8.43;;;;;;;25.85;50.68;99771.03;1731039;83;21705;-79
2022/08/13 05:12:44;;;;;;;21.50;9.18;;;;;;;25.95;50.42;99766.76;1730582;83;21203;-79
2022/08/13 05:15:51;;;;;;;21.65;8.93;;;;;;;26.03;50.01;99775.13;1730832;83;21168;-79
2022/08/13 05:18:56;;;;;;;18.85;8.38;;;;;;;26.05;50.53;99769.48;1729709;83;21207;-79
2022/08/13 05:22:01;;;;;;;20.97;8.40;;;;;;;26.20;49.99;99767.95;1729811;83;21183;-79
2022/08/13 05:25:08;;;;;;;23.77;8.83;;;;;;;26.30;50.17;99768.45;1730321;83;21171;-79
2022/08/13 05:28:17;;;;;;;12.68;7.95;;;;;;;26.45;49.58;99762.73;1729389;83;21347;-79
2022/08/13 05:31:25;;;;;;;15.30;7.87;;;;;;;26.55;49.84;99757.59;1730457;83;21168;-79
2022/08/13 05:34:32;;;;;;;24.72;8.93;;;;;;;26.73;48.78;99751.81;1730781;83;21173;-79
2022/08/13 05:37:42;;;;;;;23.62;8.38;;;;;;;26.86;49.26;99758.67;1730374;83;21235;-79
2022/08/13 05:40:49;;;;;;;19.42;7.83;;;;;;;27.17;48.76;99755.81;1729967;83;21243;-80
2022/08/13 05:43:55;;;;;;;25.43;8.88;;;;;;;27.10;48.45;99751.14;1729499;83;21200;-78
2022/08/13 05:47:01;;;;;;;16.42;9.40;;;;;;;27.24;48.09;99750.68;1730736;83;21242;-79
2022/08/13 05:50:01;;;;;;;19.80;8.88;;;;;;;27.25;47.95;99746.73;1730893;83;21168;-80
2022/08/13 05:53:17;;;;;;;21.15;9.05;;;;;;;27.28;48.17;99752.87;1730124;83;21216;-79
2022/08/13 05:56:24;;;;;;;23.87;8.90;;;;;;;27.33;47.91;99749.42;1730630;83;21191;-79
2022/08/13 06:06:25;;;;;;;20.30;10.23;;;;;;;27.78;46.30;99753.34;1754464;82;21160;-79
2022/08/13 06:09:32;;;;;;;17.35;8.98;;;;;;;27.76;46.83;99739.03;1754986;82;21211;-80
2022/08/13 06:12:38;;;;;;;20.77;9.15;;;;;;;27.96;46.80;99739.85;1754012;82;21215;-79
2022/08/13 06:15:58;;;;;;;16.67;9.10;;;;;;;28.04;45.52;99753.19;1754166;82;21160;-80
2022/08/13 06:18:50;;;;;;;17.52;9.68;;;;;;;27.86;46.02;99743.66;1762487;80;21157;-79
2022/08/13 06:21:47;;;;;;;15.70;9.18;;;;;;;27.87;46.21;99740.27;1782449;80;21204;-79
2022/08/13 06:24:38;;;;;;;21.68;9.90;;;;;;;27.98;45.72;99751.61;1781616;80;21185;-79
2022/08/13 06:27:33;;;;;;;20.72;9.85;;;;;;;28.06;45.55;99749.52;1783014;80;21240;-79
2022/08/13 06:30:21;;;;;;;15.13;9.05;;;;;;;28.18;46.15;99747.63;1713899;83;21185;-79
2022/08/13 06:33:28;;;;;;;22.35;9.90;;;;;;;28.33;44.98;99766.24;1738509;82;21231;-79
2022/08/13 06:36:36;;;;;;;22.85;9.48;;;;;;;28.39;45.05;99755.19;1716962;83;21176;-78
2022/08/13 06:39:43;;;;;;;18.25;9.23;;;;;;;28.48;44.84;99745.73;1717932;83;21183;-78
2022/08/13 06:42:51;;;;;;;23.77;10.55;;;;;;;28.60;43.72;99759.29;1697672;83;21228;-78
2022/08/13 06:45:56;;;;;;;39.75;9.98;;;;;;;28.78;44.23;99752.77;1716578;83;21737;-79
2022/08/13 06:49:11;;;;;;;19.55;9.88;;;;;;;29.02;42.89;99761.62;1716812;82;21194;-79
2022/08/13 06:52:16;;;;;;;26.65;9.55;;;;;;;29.08;41.84;99748.27;1718341;83;21201;-80
2022/08/13 06:55:23;;;;;;;19.70;9.23;;;;;;;29.11;42.44;99751.30;1719104;83;21191;-79
2022/08/13 06:58:28;;;;;;;16.97;9.53;;;;;;;29.28;41.30;99754.91;1718183;83;21198;-79
2022/08/13 07:01:32;;;;;;;16.73;9.18;;;;;;;29.36;41.47;99763.17;1718929;83;21190;-80
2022/08/13 07:04:40;;;;;;;19.27;9.23;;;;;;;29.41;41.46;99756.05;1707893;83;21210;-80
2022/08/13 07:07:50;;;;;;;24.63;10.35;;;;;;;29.49;41.25;99763.73;1741097;82;21208;-80
2022/08/13 07:14:16;;;;;;;24.47;9.65;;;;;;;29.65;41.45;99770.75;1741105;82;21201;-80
2022/08/13 07:17:10;;;;;;;20.95;8.63;;;;;;;29.67;41.17;99767.02;1741355;82;21169;-78
2022/08/13 07:20:16;;;;;;;20.00;9.63;;;;;;;29.73;39.87;99772.80;1741827;82;21158;-79
2022/08/13 07:23:23;;;;;;;24.50;9.85;;;;;;;29.83;39.81;99762.44;1750903;81;21177;-79
2022/08/13 07:26:38;;;;;;;26.73;10.03;;;;;;;29.90;39.38;99761.44;1739755;82;21189;-79
2022/08/13 07:29:41;;;;;;;23.55;8.43;;;;;;;29.98;39.70;99757.87;1740198;82;21216;-79
2022/08/13 07:32:53;;;;;;;27.90;9.23;;;;;;;30.14;39.07;99754.12;1740915;82;21208;-79
2022/08/13 07:35:58;;;;;;;28.70;9.90;;;;;;;30.26;39.37;99754.39;1741686;82;21142;-79
2022/08/13 07:39:07;;;;;;;23.45;8.35;;;;;;;30.36;39.58;99758.36;1741329;82;21213;-79
2022/08/13 07:42:15;;;;;;;26.30;8.95;;;;;;;30.45;39.17;99752.20;1741387;82;21354;-79
2022/08/13 07:45:20;;;;;;;28.87;8.47;;;;;;;30.48;39.18;99752.94;1741889;82;21141;-79
2022/08/13 07:48:16;;;;;;;28.35;9.60;;;;;;;30.52;38.42;99755.95;1739922;82;21177;-80
2022/08/13 07:51:24;;;;;;;22.52;7.47;;;;;;;30.49;38.51;99743.34;1739859;82;21150;-80
2022/08/13 07:54:31;;;;;;;26.25;8.35;;;;;;;30.54;38.88;99749.43;1740255;82;21185;-80
2022/08/13 07:57:43;;;;;;;36.20;9.00;;;;;;;30.64;38.08;99737.86;1741143;82;21515;-80
2022/08/13 08:00:46;;;;;;;25.23;8.38;;;;;;;30.68;39.00;99743.70;1740352;82;21173;-80
2022/08/13 08:03:54;;;;;;;25.30;8.25;;;;;;;30.88;38.09;99742.33;1740305;82;21197;-80
2022/08/13 08:07:01;;;;;;;27.48;7.50;;;;;;;30.88;38.09;99742.33;1744366;82;21169;-80
2022/08/13 08:10:08;;;;;;;21.12;7.25;;;;;;;30.99;38.81;99738.05;1748073;82;21169;-80
2022/08/13 08:13:18;;;;;;;26.80;7.03;;;;;;;31.09;38.04;99732.09;1747987;82;21757;-79
2022/08/13 08:16:23;;;;;;;30.92;8.13;;;;;;;31.09;38.04;99732.09;1752487;81;21749;-80
2022/08/13 08:19:31;;;;;;;30.82;7.33;;;;;;;31.20;38.15;99736.31;1749606;82;21173;-79
2022/08/13 08:22:38;;;;;;;26.12;7.53;;;;;;;31.29;37.88;99724.48;1748220;82;21725;-79
2022/08/13 08:25:43;;;;;;;33.85;8.43;;;;;;;31.30;38.43;99720.49;1749283;82;21204;-78
2022/08/13 08:28:51;;;;;;;31.90;7.80;;;;;;;31.43;38.14;99731.42;1747809;82;21176;-78
2022/08/13 08:31:57;;;;;;;21.35;8.25;;;;;;;31.44;37.66;99723.77;1749497;82;21141;-79
2022/08/13 08:35:05;;;;;;;18.98;7.15;;;;;;;31.43;38.10;99722.08;1748289;82;21722;-79
2022/08/13 08:44:59;;;;;;;32.08;8.83;;;;;;;31.51;37.79;99707.97;1747994;82;21224;-79
2022/08/13 08:48:06;;;;;;;31.40;7.62;;;;;;;31.56;37.74;99703.56;1748764;82;21793;-80
2022/08/13 08:51:12;;;;;;;30.92;8.43;;;;;;;31.62;37.13;99704.81;1749311;82;21196;-79
2022/08/13 08:54:12;;;;;;;32.15;8.93;;;;;;;31.63;36.11;99712.98;1748547;82;21181;-79
2022/08/13 08:57:19;;;;;;;27.75;9.20;;;;;;;31.68;36.04;99694.45;1749322;82;21228;-80
2022/08/13 09:00:45;;;;;;;28.12;9.00;;;;;;;31.75;34.63;99696.17;1748606;82;21200;-79
2022/08/13 09:03:51;;;;;;;31.60;8.95;;;;;;;31.76;35.05;99688.52;1748200;82;21765;-79
2022/08/13 09:06:58;;;;;;;34.33;9.05;;;;;;;31.81;35.14;99692.62;1748148;82;21220;-79
2022/08/13 09:10:09;;;;;;;36.95;8.83;;;;;;;31.86;34.45;99687.42;1748122;82;21212;-79
2022/08/13 09:13:21;;;;;;;34.92;8.83;;;;;;;31.93;34.86;99684.31;1748143;82;21753;-79
2022/08/13 09:16:30;;;;;;;32.63;8.55;;;;;;;32.03;34.92;99677.48;1748084;82;21746;-79
2022/08/13 09:19:37;;;;;;;38.42;8.98;;;;;;;32.06;34.90;99677.66;1749515;82;21157;-80
2022/08/13 09:22:44;;;;;;;38.28;8.80;;;;;;;32.18;34.87;99666.22;1748857;82;21204;-78
2022/08/13 09:25:53;;;;;;;50.75;9.33;;;;;;;32.27;35.37;99665.03;1748218;82;21193;-80
2022/08/13 09:29:01;;;;;;;31.10;8.48;;;;;;;32.36;33.56;99665.61;1748107;82;21223;-79
2022/08/13 09:32:09;;;;;;;38.80;9.93;;;;;;;32.43;34.24;99653.23;1749400;82;21232;-79
2022/08/13 09:35:16;;;;;;;40.40;9.70;;;;;;;32.38;33.70;99658.48;1748143;82;21702;-79
2022/08/13 09:38:23;;;;;;;37.83;9.53;;;;;;;32.40;33.76;99663.21;1748054;82;21173;-79
2022/08/13 09:41:35;;;;;;;35.92;9.35;;;;;;;32.45;34.67;99651.70;1749073;82;21733;-80
2022/08/13 09:44:43;;;;;;;42.80;9.80;;;;;;;32.63;34.04;99649.64;1748878;82;21200;-79
2022/08/13 09:47:50;;;;;;;30.92;9.68;;;;;;;32.77;34.12;99654.49;1749038;82;21224;-80
2022/08/13 09:50:57;;;;;;;36.90;9.45;;;;;;;32.72;33.83;99646.19;1750345;80;21160;-79
2022/08/13 09:54:05;;;;;;;34.50;9.33;;;;;;;32.85;33.48;99637.81;1748338;82;21177;-77
2022/08/13 09:57:10;;;;;;;33.30;8.75;;;;;;;32.82;33.61;99644.39;1748223;82;21223;-77
2022/08/13 10:00:22;;;;;;;45.08;9.53;;;;;;;32.89;33.90;99642.45;1748117;82;21180;-77
2022/08/13 10:03:26;;;;;;;35.70;8.95;;;;;;;32.88;33.22;99641.36;1746991;82;21543;-79
2022/08/13 10:06:32;;;;;;;38.08;9.35;;;;;;;32.83;32.49;99641.80;1755017;80;21202;-81
2022/08/13 10:09:39;;;;;;;30.48;8.35;;;;;;;32.82;31.88;99635.89;1745918;82;21253;-79
2022/08/13 10:12:46;;;;;;;43.83;10.35;;;;;;;32.82;32.27;99628.81;1773481;80;21173;-82
2022/08/13 10:15:52;;;;;;;37.03;9.35;;;;;;;32.91;34.16;99629.39;1741160;82;21636;-82
2022/08/13 10:18:58;;;;;;;37.58;9.65;;;;;;;33.01;32.04;99628.99;1725174;83;21551;-82
2022/08/13 10:22:03;;;;;;;39.10;9.68;;;;;;;32.99;32.50;99618.60;1717797;82;21246;-82
2022/08/13 10:25:09;;;;;;;41.98;8.70;;;;;;;33.00;33.16;99621.67;1711745;84;21875;-81
2022/08/13 10:28:34;;;;;;;32.93;10.30;;;;;;;33.07;33.37;99629.03;1710345;84;21194;-81
2022/08/13 10:31:41;;;;;;;34.48;7.92;;;;;;;32.11;35.16;99615.01;1682625;85;21222;-82
2022/08/13 10:34:50;;;;;;;31.57;8.98;;;;;;;32.23;35.37;99613.16;1698042;84;21184;-82
2022/08/13 10:37:54;;;;;;;38.53;8.80;;;;;;;32.22;34.24;99634.09;1718076;83;21229;-82
2022/08/13 10:41:07;;;;;;;49.95;8.70;;;;;;;32.34;32.21;99615.61;1701004;83;21174;-82
2022/08/13 10:44:13;;;;;;;35.85;9.98;;;;;;;32.37;32.98;99612.11;1704651;84;21173;-81
2022/08/13 10:47:20;;;;;;;30.15;8.58;;;;;;;32.34;33.69;99612.78;1704006;84;21197;-82
2022/08/13 10:50:29;;;;;;;43.13;9.65;;;;;;;32.35;33.94;99608.77;1727400;83;21181;-82
2022/08/13 10:56:58;;;;;;;40.38;9.50;;;;;;;32.33;34.38;99620.44;1725677;83;21815;-82
2022/08/13 11:00:03;;;;;;;31.55;8.25;;;;;;;32.39;34.35;99602.13;1712176;84;21555;-83
2022/08/13 11:03:09;;;;;;;41.28;9.95;;;;;;;32.28;33.60;99607.30;1725401;83;21197;-82
2022/08/13 11:06:15;;;;;;;29.87;8.85;;;;;;;32.25;34.79;99619.87;1711507;84;21200;-82
2022/08/13 11:09:24;;;;;;;36.17;8.98;;;;;;;32.28;34.83;99617.20;1711899;82;21582;-82
2022/08/13 11:12:30;;;;;;;46.42;10.03;;;;;;;32.26;34.45;99615.88;1770539;81;21193;-82
2022/08/13 11:15:39;;;;;;;47.78;10.88;;;;;;;32.30;34.74;99630.42;1771141;81;21150;-82
2022/08/13 11:18:46;;;;;;;41.68;9.63;;;;;;;32.36;35.51;99603.35;1769641;81;21170;-82
2022/08/13 11:21:52;;;;;;;39.60;8.85;;;;;;;32.44;34.62;99603.94;1769371;81;21228;-83
2022/08/13 11:24:59;;;;;;;38.70;9.78;;;;;;;32.40;34.48;99616.52;1770609;81;21777;-81
2022/08/13 11:28:07;;;;;;;30.77;8.45;;;;;;;32.39;34.52;99603.55;1769981;81;21738;-81
2022/08/13 11:31:15;;;;;;;33.85;8.53;;;;;;;32.18;34.76;99599.16;1771262;81;21304;-81
2022/08/13 11:34:22;;;;;;;26.15;8.58;;;;;;;32.19;35.50;99600.02;1770852;81;21185;-82
2022/08/13 11:37:26;;;;;;;24.92;7.90;;;;;;;32.22;34.48;99598.73;1740818;81;21175;-83
2022/08/13 11:40:33;;;;;;;31.85;7.62;;;;;;;32.11;34.07;99598.03;1740470;82;21210;-81
2022/08/13 11:43:41;;;;;;;35.52;8.05;;;;;;;32.07;34.64;99587.97;1739448;82;21206;-82
2022/08/13 11:46:49;;;;;;;22.90;7.50;;;;;;;32.08;34.51;99583.97;1739914;81;21262;-82
2022/08/13 11:49:56;;;;;;;28.12;7.47;;;;;;;32.14;34.56;99574.16;1740457;82;21744;-82
2022/08/13 11:53:02;;;;;;;26.30;7.45;;;;;;;32.24;35.11;99572.95;1740181;82;21182;-83
2022/08/13 11:56:09;;;;;;;21.42;6.92;;;;;;;32.34;34.18;99575.99;1741739;82;21108;-81
2022/08/13 11:59:16;;;;;;;25.43;7.15;;;;;;;32.32;34.10;99572.06;1739936;82;21171;-82
2022/08/13 12:02:22;;;;;;;29.80;8.00;;;;;;;32.28;33.73;99564.04;1741527;81;22068;-81
2022/08/13 12:05:29;;;;;;;19.40;6.55;;;;;;;32.21;34.11;99570.20;1741753;82;21740;-81
2022/08/13 12:08:36;;;;;;;26.23;6.78;;;;;;;32.17;34.30;99572.63;1740721;82;21206;-82
2022/08/13 12:11:44;;;;;;;20.35;6.70;;;;;;;32.22;33.72;99572.45;1741694;81;21210;-82
2022/08/13 12:14:51;;;;;;;28.50;6.85;;;;;;;32.34;34.14;99556.19;1741491;82;21167;-82
2022/08/13 12:17:56;;;;;;;21.52;6.22;;;;;;;32.50;33.48;99557.29;1740587;81;21225;-82
2022/08/13 12:21:03;;;;;;;25.55;7.28;;;;;;;32.56;33.42;99553.94;1741555;82;21169;-82
2022/08/13 12:24:12;;;;;;;;;;;;;;;32.63;33.71;99554.81;1754868;81;21669;-81
2022/08/13 12:27:17;;;;;;;16.05;5.80;;;;;;;32.71;33.80;99546.86;1740098;82;20709;-81
2022/08/13 12:30:23;;;;;;;22.50;6.87;;;;;;;32.72;33.43;99551.34;1741605;82;21163;-82
2022/08/13 12:33:30;;;;;;;24.20;7.45;;;;;;;32.73;33.52;99548.75;1741178;81;21600;-81
2022/08/13 12:36:38;;;;;;;24.72;7.03;;;;;;;32.68;33.78;99549.54;1741304;82;21772;-81
2022/08/13 12:39:38;;;;;;;26.27;7.47;;;;;;;32.68;34.29;99541.05;1741822;82;21157;-81
2022/08/13 12:42:34;;;;;;;18.48;6.22;;;;;;;32.76;33.38;99534.51;1741267;82;21515;-81
2022/08/13 12:45:45;;;;;;;19.02;7.45;;;;;;;32.82;32.55;99536.78;1741389;82;21159;-81
2022/08/13 12:48:50;;;;;;;22.30;7.05;;;;;;;32.89;32.38;99522.66;1740437;81;21199;-82
2022/08/13 12:51:56;;;;;;;18.95;6.05;;;;;;;32.98;32.44;99531.95;1740651;82;21175;-82
2022/08/13 12:55:02;;;;;;;22.25;6.45;;;;;;;33.04;31.57;99525.75;1741076;82;21226;-81
2022/08/13 12:58:22;;;;;;;16.70;5.70;;;;;;;32.96;30.88;99525.22;1739668;82;21210;-81
2022/08/13 13:01:30;;;;;;;10.65;5.37;;;;;;;32.90;29.52;99522.92;1741162;82;21716;-82
2022/08/13 13:04:41;;;;;;;16.45;5.58;;;;;;;32.91;27.84;99523.19;1740238;81;21270;-82
2022/08/13 13:07:44;;;;;;;18.57;6.30;;;;;;;32.99;28.17;99535.05;1740366;82;21210;-81
2022/08/13 13:10:53;;;;;;;18.80;6.28;;;;;;;33.01;27.68;99528.44;1740841;82;21250;-81
2022/08/13 13:13:59;;;;;;;16.12;5.90;;;;;;;33.04;27.82;99524.92;1744541;81;21147;-82
2022/08/13 13:17:07;;;;;;;10.50;4.80;;;;;;;33.08;27.45;99523.06;1740749;82;21218;-82
2022/08/13 13:20:15;;;;;;;11.55;4.80;;;;;;;33.08;26.72;99528.73;1739595;81;21266;-81
2022/08/13 13:23:26;;;;;;;8.03;4.40;;;;;;;33.02;26.08;99530.09;1741610;82;21183;-82
2022/08/13 13:26:33;;;;;;;12.85;4.95;;;;;;;32.95;25.80;99530.66;1741213;82;21218;-82
2022/08/13 13:29:42;;;;;;;15.32;5.92;;;;;;;32.93;26.96;99517.99;1741975;82;21139;-82
2022/08/13 13:32:50;;;;;;;17.07;6.10;;;;;;;32.90;27.07;99532.83;1741436;82;21238;-81
2022/08/13 13:35:58;;;;;;;11.70;5.08;;;;;;;32.51;27.94;99524.98;1741962;82;21222;-82
2022/08/13 13:39:06;;;;;;;13.08;5.28;;;;;;;32.50;28.22;99532.64;1740414;82;21210;-82
2022/08/13 13:42:15;;;;;;;12.58;5.67;;;;;;;32.52;28.29;99525.25;1742189;82;21233;-82
2022/08/13 13:45:22;;;;;;;12.88;4.80;;;;;;;32.66;27.49;99523.00;1742280;82;21787;-82
2022/08/13 13:48:40;;;;;;;10.93;5.00;;;;;;;32.96;26.83;99524.39;1740532;82;21854;-81
2022/08/13 13:51:46;;;;;;;16.87;5.22;;;;;;;33.09;26.33;99531.80;1741962;82;21195;-82
2022/08/13 13:54:53;;;;;;;13.83;4.87;;;;;;;33.09;25.09;99523.30;1742099;82;21275;-82
2022/08/13 13:57:59;;;;;;;8.48;4.90;;;;;;;33.07;25.94;99526.45;1741679;82;21352;-83
2022/08/13 14:01:06;;;;;;;18.27;5.28;;;;;;;33.07;26.17;99519.38;1742048;82;21756;-82
2022/08/13 14:04:16;;;;;;;30.60;5.50;;;;;;;32.95;27.40;99521.33;1742027;81;21238;-81
2022/08/13 14:07:21;;;;;;;12.60;5.05;;;;;;;33.08;26.45;99530.14;1741738;82;21202;-81
2022/08/13 14:10:29;;;;;;;10.58;4.12;;;;;;;32.98;26.17;99519.20;1740125;82;21175;-81
2022/08/13 14:13:36;;;;;;;13.03;4.72;;;;;;;32.97;25.76;99521.21;1740815;82;21250;-82
2022/08/13 14:16:43;;;;;;;13.03;4.55;;;;;;;33.03;26.30;99518.44;1755268;82;21170;-81
2022/08/13 14:19:50;;;;;;;9.80;4.45;;;;;;;32.96;26.64;99513.89;1754048;80;21233;-82
2022/08/13 14:22:58;;;;;;;13.13;4.90;;;;;;;32.80;26.78;99523.57;1754316;82;21734;-81
2022/08/13 14:26:05;;;;;;;14.25;5.15;;;;;;;32.67;26.29;99513.91;1753426;82;21159;-82
2022/08/13 14:29:12;;;;;;;11.73;5.58;;;;;;;32.65;27.03;99513.41;1754241;82;21799;-82
2022/08/13 14:32:18;;;;;;;11.88;5.42;;;;;;;32.70;27.00;99518.31;1754662;82;21194;-82
2022/08/13 14:35:25;;;;;;;11.57;5.42;;;;;;;32.51;27.47;99508.00;1717013;82;21200;-82
2022/08/13 14:38:32;;;;;;;13.08;5.85;;;;;;;32.42;28.19;99510.91;1706027;84;21247;-82
2022/08/13 14:41:45;;;;;;;10.20;4.60;;;;;;;32.40;27.98;99509.57;1721334;83;21176;-81
2022/08/13 14:45:39;;;;;;;13.80;4.75;;;;;;;32.44;28.28;99513.38;1721782;83;21190;-81
2022/08/13 14:47:59;;;;;;;9.20;5.17;;;;;;;32.39;28.34;99509.34;1720046;83;21737;-79
2022/08/13 14:51:11;;;;;;;11.20;4.08;;;;;;;32.18;27.52;99519.13;1721091;83;21224;-78
2022/08/13 14:54:19;;;;;;;7.50;3.98;;;;;;;32.16;26.87;99508.75;1717756;83;21172;-79
2022/08/13 14:57:25;;;;;;;7.12;3.80;;;;;;;32.19;26.61;99499.00;1711481;84;21192;-78